Accueil
METAR-TAF:

METAR-TAF

Aéroports :

Santa Cruz, Rio de Janeiro, Brésil

latitude: 22-56S, longitude: 043-43W, altitude: 3 m

Observation

Le bulletin a été fait il y a 55 minutes, à 22:00 UTC
Vent 3 kt de ouest/sud-ouest
Température 24°C
Humidité 89%
Pression 1011 hPa
Visibilité 10 km ou plus
pas de nuages en-dessous de 1500 mètres et pas de cumulonimbus.

METAR: SBSC 062200Z 24003KT CAVOK 24/22 Q1011

Heure: 19:55 (22:55 UTC)

Prévision

Le bulletin a été fait il y a 7 heures et 55 minutes, à 15:00 UTC
Prévision valable du 06 à 18 UTC au 07 à 06 UTC
Vent 11 kt de sud/sud-est
Visibilité 10 km ou plus
Nuages épars à une hauteur de 2000 ft
Evoluant progressivement
du 07 à 01 UTC au 07 à 03 UTC
Vent 5 kt de nord/nord-ouest

TAF: SBSC 061500Z 0618/0706 16011KT 9999 SCT020 TX27/0618Z TN23/0705Z BECMG 0701/0703 33005KT RMK PEI

Observations et prévisions météorologiques de plus de 4000 aéroports (messages METAR et TAF).

Les stations disponibles sont représentées par des disques jaunes et rouges sur la carte.

Passer la souris dessus pour voir le nom de la station.

Cliquer dessus pour voir les observations et prévisions météorologiques.

Pour changer de carte: cliquez sur les boutons verts avec une croix noire pour zoomer, sur le bouton vert avec un tiret pour effectuer un zoom arrière, ou sur les flèches vertes pour les cartes adjacentes.


METAR-TAF: